Time;durP1;ratioP1;P1;durP2;ratioP2;P2;SDS_P1;SDS_P2;PMS_P1;PMS_P2;Temp;Humidity;BMP_temperature;BMP_pressure;BME280_temperature;BME280_humidity;BME280_pressure;Samples;Min_cycle;Max_cycle;Signal;HPM_P1;HPM_P2
2021/12/27 00:00:22;;;;;;;29.27;15.68;;;-1.10;99.90;;;;;;5094606;27;20050;-89
2021/12/27 00:02:52;;;;;;;30.13;15.20;;;-1.20;99.90;;;;;;5117451;27;20046;-89
2021/12/27 00:05:18;;;;;;;27.45;14.55;;;-1.30;99.90;;;;;;5129994;27;20081;-82
2021/12/27 00:07:48;;;;;;;29.00;14.70;;;-1.30;99.90;;;;;;5114300;27;20078;-83
2021/12/27 00:10:14;;;;;;;33.22;15.82;;;-1.40;99.90;;;;;;5127954;28;20058;-83
2021/12/27 00:12:40;;;;;;;30.55;16.25;;;-1.40;99.90;;;;;;5099053;27;20589;-82
2021/12/27 00:15:06;;;;;;;33.28;16.90;;;-1.40;99.90;;;;;;5141428;27;20056;-83
2021/12/27 00:17:32;;;;;;;35.10;18.20;;;-1.40;99.90;;;;;;5123244;27;20057;-82
2021/12/27 00:19:58;;;;;;;32.60;18.85;;;-1.40;99.90;;;;;;5123498;27;20050;-84
2021/12/27 00:22:24;;;;;;;33.70;19.50;;;-1.30;99.90;;;;;;5101465;27;20043;-87
2021/12/27 00:24:50;;;;;;;34.75;18.88;;;-1.20;99.90;;;;;;5124486;27;20035;-82
2021/12/27 00:27:17;;;;;;;31.95;16.48;;;-1.20;99.90;;;;;;5121702;27;20050;-82
2021/12/27 00:29:44;;;;;;;32.08;17.23;;;-1.10;99.90;;;;;;5120914;27;20196;-82
2021/12/27 00:32:11;;;;;;;32.60;17.92;;;-0.90;99.90;;;;;;5137424;27;20384;-85
2021/12/27 00:34:37;;;;;;;30.83;16.60;;;-1.00;99.90;;;;;;5138176;27;20118;-82
2021/12/27 00:37:04;;;;;;;31.00;16.48;;;-0.90;99.90;;;;;;5118383;27;20461;-82
2021/12/27 00:39:31;;;;;;;28.80;16.38;;;-0.80;99.90;;;;;;5101450;27;20149;-82
2021/12/27 00:41:57;;;;;;;33.40;17.80;;;-0.70;99.90;;;;;;5123435;27;20042;-82
2021/12/27 00:44:23;;;;;;;28.52;15.95;;;-0.70;99.90;;;;;;5124491;27;20053;-86
2021/12/27 00:46:49;;;;;;;30.58;16.27;;;-0.70;99.90;;;;;;5104159;27;20047;-81
2021/12/27 00:49:14;;;;;;;28.95;16.83;;;-0.60;99.90;;;;;;5115751;27;20103;-82
2021/12/27 00:51:40;;;;;;;29.40;16.75;;;-0.50;99.90;;;;;;5120476;27;20058;-84
2021/12/27 00:54:06;;;;;;;31.75;18.33;;;-0.60;99.90;;;;;;5115650;27;20099;-82
2021/12/27 00:56:31;;;;;;;30.90;16.13;;;-0.60;99.90;;;;;;5141234;27;20074;-84
2021/12/27 00:58:57;;;;;;;28.13;16.55;;;-0.50;99.90;;;;;;5107267;27;20103;-83
2021/12/27 01:01:23;;;;;;;31.58;17.30;;;-0.50;99.90;;;;;;5113957;27;20071;-84
2021/12/27 01:03:49;;;;;;;32.45;17.58;;;-0.50;99.90;;;;;;5100152;27;20039;-82
2021/12/27 01:06:14;;;;;;;33.00;17.17;;;-0.50;99.90;;;;;;5140894;27;20521;-82
2021/12/27 01:08:40;;;;;;;33.00;18.70;;;-0.50;99.90;;;;;;5123708;27;20445;-85
2021/12/27 01:11:27;;;;;;;35.33;17.65;;;-0.50;99.90;;;;;;5123941;27;20046;-83
2021/12/27 01:14:08;;;;;;;29.98;16.38;;;-0.40;99.90;;;;;;5126125;27;20046;-82
2021/12/27 01:16:34;;;;;;;30.77;16.85;;;-0.40;99.90;;;;;;5136546;27;20055;-82
2021/12/27 01:19:00;;;;;;;31.65;16.88;;;-0.50;99.90;;;;;;5120453;27;20464;-83
2021/12/27 01:21:25;;;;;;;33.30;17.40;;;-0.40;99.90;;;;;;5105676;27;20043;-82
2021/12/27 01:23:52;;;;;;;30.52;16.17;;;-0.40;99.90;;;;;;5095452;27;20053;-83
2021/12/27 01:26:18;;;;;;;30.88;17.08;;;-0.40;99.90;;;;;;5098213;27;20134;-82
2021/12/27 01:28:44;;;;;;;33.33;18.27;;;-0.40;99.90;;;;;;5103177;27;20038;-82
2021/12/27 01:31:11;;;;;;;29.95;16.30;;;-0.40;99.90;;;;;;5119896;27;20043;-84
2021/12/27 01:33:39;;;;;;;27.30;15.27;;;-0.40;99.90;;;;;;5106322;27;20502;-82
2021/12/27 01:36:06;;;;;;;29.85;17.27;;;-0.40;99.90;;;;;;5137678;27;20395;-82
2021/12/27 01:38:35;;;;;;;30.15;16.35;;;-0.40;99.90;;;;;;5137595;27;20134;-85
2021/12/27 01:41:02;;;;;;;29.00;15.40;;;-0.30;99.90;;;;;;5116890;27;20122;-85
2021/12/27 01:43:30;;;;;;;35.15;17.38;;;-0.40;99.90;;;;;;5117529;27;20046;-83
2021/12/27 01:46:08;;;;;;;32.47;18.27;;;-0.30;99.90;;;;;;5137198;27;20061;-82
2021/12/27 01:48:38;;;;;;;29.27;16.33;;;-0.30;99.90;;;;;;5120207;27;20125;-87
2021/12/27 01:51:08;;;;;;;34.28;17.35;;;-0.40;99.90;;;;;;5115306;27;20126;-82
2021/12/27 01:53:36;;;;;;;31.95;17.42;;;-0.30;99.90;;;;;;5135594;27;20126;-89
2021/12/27 01:56:04;;;;;;;32.22;17.40;;;-0.30;99.90;;;;;;5118425;27;20066;-82
2021/12/27 01:58:30;;;;;;;33.10;16.90;;;-0.30;99.90;;;;;;5120123;27;20054;-82
2021/12/27 02:00:58;;;;;;;31.10;16.60;;;-0.30;99.90;;;;;;5120026;27;20049;-82
2021/12/27 02:03:27;;;;;;;34.03;18.23;;;-0.30;99.90;;;;;;5137314;27;20047;-82
2021/12/27 02:05:53;;;;;;;34.25;17.98;;;-0.30;99.90;;;;;;5136337;27;20042;-82
2021/12/27 02:08:19;;;;;;;37.03;19.85;;;-0.30;99.90;;;;;;5137339;27;20087;-83
2021/12/27 02:10:45;;;;;;;35.13;19.45;;;-0.30;99.90;;;;;;5119971;27;20097;-82
2021/12/27 02:13:12;;;;;;;30.27;17.50;;;-0.20;99.90;;;;;;5103107;27;20487;-83
2021/12/27 02:15:37;;;;;;;37.20;20.50;;;-0.20;99.90;;;;;;5136902;27;20043;-86
2021/12/27 02:18:04;;;;;;;30.10;17.35;;;-0.20;99.90;;;;;;5096304;27;20116;-82
2021/12/27 02:20:35;;;;;;;36.40;18.80;;;-0.20;99.90;;;;;;5111400;27;20043;-84
2021/12/27 02:23:07;;;;;;;31.70;17.00;;;-0.20;99.90;;;;;;5135583;27;20053;-81
2021/12/27 02:25:34;;;;;;;36.63;17.70;;;-0.20;99.90;;;;;;5119574;27;20126;-83
2021/12/27 02:28:02;;;;;;;32.20;16.90;;;-0.10;99.90;;;;;;5081038;27;20518;-83
2021/12/27 02:30:30;;;;;;;32.47;18.02;;;-0.20;99.90;;;;;;5136389;27;20043;-82
2021/12/27 02:32:59;;;;;;;33.53;18.80;;;-0.10;99.90;;;;;;5093352;27;20051;-83
2021/12/27 02:35:32;;;;;;;34.53;17.83;;;-0.10;99.90;;;;;;5134456;27;20042;-82
2021/12/27 02:37:59;;;;;;;35.00;17.77;;;-0.20;99.90;;;;;;5122420;27;20047;-83
2021/12/27 02:40:27;;;;;;;29.98;17.58;;;-0.10;99.90;;;;;;5116079;27;20046;-82
2021/12/27 02:42:58;;;;;;;31.77;17.95;;;-0.10;99.90;;;;;;5115583;27;20051;-81
2021/12/27 02:45:24;;;;;;;33.65;17.77;;;-0.10;99.90;;;;;;5116038;27;20357;-82
2021/12/27 02:47:50;;;;;;;32.22;17.52;;;-0.10;99.90;;;;;;5083004;27;20062;-82
2021/12/27 02:50:16;;;;;;;35.17;17.83;;;-0.10;99.90;;;;;;5127717;27;20467;-83
2021/12/27 02:52:42;;;;;;;36.22;19.55;;;0.00;99.90;;;;;;5118886;27;20043;-87
2021/12/27 02:55:12;;;;;;;34.90;17.95;;;-0.10;99.90;;;;;;5102043;27;20053;-82
2021/12/27 02:57:38;;;;;;;32.35;18.73;;;-0.10;99.90;;;;;;5135987;27;20050;-82
2021/12/27 03:00:05;;;;;;;32.15;17.27;;;0.00;99.90;;;;;;5121937;27;20051;-82
2021/12/27 03:02:31;;;;;;;32.15;17.80;;;0.00;99.90;;;;;;5101772;27;20056;-83
2021/12/27 03:04:56;;;;;;;31.75;17.17;;;0.00;99.90;;;;;;5135888;27;20051;-82
2021/12/27 03:07:22;;;;;;;31.88;17.98;;;0.00;99.90;;;;;;5098658;27;20381;-81
2021/12/27 03:09:48;;;;;;;34.25;18.88;;;0.00;99.90;;;;;;5074751;27;20046;-82
2021/12/27 03:12:13;;;;;;;35.22;18.35;;;0.00;99.90;;;;;;5116038;27;20490;-82
2021/12/27 03:14:39;;;;;;;33.78;18.83;;;0.00;99.90;;;;;;5086274;27;20089;-81
2021/12/27 03:17:05;;;;;;;30.13;17.02;;;0.00;99.90;;;;;;5118928;27;20061;-82
2021/12/27 03:19:30;;;;;;;33.05;17.48;;;0.00;99.90;;;;;;5102454;27;20146;-82
2021/12/27 03:21:56;;;;;;;34.00;19.38;;;0.00;99.90;;;;;;5092066;27;20047;-83
2021/12/27 03:24:22;;;;;;;33.70;17.88;;;0.00;99.90;;;;;;5109088;27;20057;-83
2021/12/27 03:26:49;;;;;;;29.17;17.35;;;0.00;99.90;;;;;;5097641;27;20043;-87
2021/12/27 03:29:15;;;;;;;34.85;18.88;;;0.00;99.90;;;;;;5132131;27;20492;-82
2021/12/27 03:31:40;;;;;;;32.95;17.17;;;0.00;99.90;;;;;;5119235;27;20090;-82
2021/12/27 03:34:06;;;;;;;32.80;17.45;;;0.00;99.90;;;;;;5136168;27;20380;-81
2021/12/27 03:36:40;;;;;;;32.00;18.27;;;0.10;99.90;;;;;;5118638;27;20047;-81
2021/12/27 03:39:08;;;;;;;30.45;17.17;;;0.00;99.90;;;;;;5119341;27;20047;-83
2021/12/27 03:41:34;;;;;;;30.45;17.27;;;0.00;99.90;;;;;;5128200;27;20031;-81
2021/12/27 03:44:00;;;;;;;32.28;18.08;;;0.10;99.90;;;;;;5089652;27;20134;-81
2021/12/27 03:46:26;;;;;;;30.05;18.10;;;0.10;99.90;;;;;;5094123;27;20047;-82
2021/12/27 03:48:51;;;;;;;31.98;17.70;;;0.10;99.90;;;;;;5088339;27;20057;-84
2021/12/27 03:51:17;;;;;;;31.55;18.17;;;0.10;99.90;;;;;;5135928;27;20039;-83
2021/12/27 03:53:43;;;;;;;32.28;17.75;;;0.10;99.90;;;;;;5135222;27;20045;-82
2021/12/27 03:56:09;;;;;;;34.08;18.50;;;0.10;99.90;;;;;;5135110;27;20050;-82
2021/12/27 03:58:56;;;;;;;32.40;17.73;;;0.10;99.90;;;;;;5090587;27;20046;-82
2021/12/27 04:01:24;;;;;;;29.25;16.67;;;0.20;99.90;;;;;;5121071;27;20057;-82
2021/12/27 04:03:56;;;;;;;30.73;17.67;;;0.10;99.90;;;;;;5134864;27;20042;-84
2021/12/27 04:06:23;;;;;;;31.42;16.98;;;0.20;99.90;;;;;;5118381;27;20066;-82
2021/12/27 04:08:49;;;;;;;32.38;18.55;;;0.10;99.90;;;;;;5084797;27;20050;-82
2021/12/27 04:11:15;;;;;;;33.28;18.55;;;0.20;99.90;;;;;;5114049;28;20845;-81
2021/12/27 04:13:41;;;;;;;33.92;18.58;;;0.10;99.90;;;;;;5130581;27;20043;-82
2021/12/27 04:16:07;;;;;;;35.03;18.58;;;0.20;99.90;;;;;;5134663;27;20047;-80
2021/12/27 04:18:33;;;;;;;34.38;18.42;;;0.20;99.90;;;;;;5134987;27;20073;-82
2021/12/27 04:20:59;;;;;;;35.15;18.58;;;0.20;99.90;;;;;;5115291;27;20710;-83
2021/12/27 04:23:25;;;;;;;38.83;18.85;;;0.20;99.90;;;;;;5132600;27;20046;-83
2021/12/27 04:25:51;;;;;;;35.78;18.17;;;0.20;99.90;;;;;;5088813;28;20050;-82
2021/12/27 04:28:17;;;;;;;34.13;18.58;;;0.20;99.90;;;;;;5092786;27;20121;-85
2021/12/27 04:30:43;;;;;;;30.48;17.95;;;0.20;99.90;;;;;;5116346;27;20115;-83
2021/12/27 04:33:09;;;;;;;33.38;19.42;;;0.20;99.90;;;;;;5115045;27;20521;-82
2021/12/27 04:35:35;;;;;;;35.53;18.88;;;0.20;99.90;;;;;;5097354;27;20054;-82
2021/12/27 04:38:01;;;;;;;35.42;18.58;;;0.20;99.90;;;;;;5132873;27;20042;-83
2021/12/27 04:40:28;;;;;;;37.70;18.33;;;0.20;99.90;;;;;;5133848;27;20121;-85
2021/12/27 04:43:04;;;;;;;31.63;17.77;;;0.20;99.90;;;;;;5095605;28;20035;-82
2021/12/27 04:45:30;;;;;;;33.92;18.83;;;0.30;99.90;;;;;;5114984;27;20031;-82
2021/12/27 04:47:56;;;;;;;34.15;18.60;;;0.20;99.90;;;;;;5117533;27;20062;-83
2021/12/27 04:50:23;;;;;;;32.42;18.08;;;0.30;99.90;;;;;;5112983;28;20118;-83
2021/12/27 04:52:52;;;;;;;32.10;18.20;;;0.30;99.90;;;;;;5083303;27;20126;-83
2021/12/27 04:55:25;;;;;;;34.95;19.05;;;0.30;99.90;;;;;;5117262;27;20055;-83
2021/12/27 04:57:52;;;;;;;35.10;18.70;;;0.30;99.90;;;;;;5098419;28;20146;-83
2021/12/27 05:00:18;;;;;;;35.60;17.90;;;0.30;99.90;;;;;;5116887;27;20050;-82
2021/12/27 05:02:44;;;;;;;34.95;19.17;;;0.30;99.90;;;;;;5121190;27;20082;-83
2021/12/27 05:05:10;;;;;;;36.95;19.33;;;0.30;99.90;;;;;;5137760;27;20077;-82
2021/12/27 05:07:36;;;;;;;36.63;19.35;;;0.30;99.90;;;;;;5138170;27;20117;-82
2021/12/27 05:10:04;;;;;;;32.95;18.65;;;0.30;99.90;;;;;;5098292;27;20067;-91
2021/12/27 05:12:30;;;;;;;34.28;19.02;;;0.30;99.90;;;;;;5122021;27;20373;-81
2021/12/27 05:14:56;;;;;;;29.27;17.60;;;0.30;99.90;;;;;;5139900;27;20049;-80
2021/12/27 05:17:22;;;;;;;33.33;17.40;;;0.30;99.90;;;;;;5099890;27;20422;-81
2021/12/27 05:19:48;;;;;;;31.63;18.05;;;0.30;99.90;;;;;;5098569;27;20073;-81
2021/12/27 05:22:14;;;;;;;36.95;19.50;;;0.30;99.90;;;;;;5100040;27;20700;-82
2021/12/27 05:24:39;;;;;;;33.67;18.58;;;0.30;99.90;;;;;;5104191;27;20059;-83
2021/12/27 05:27:05;;;;;;;37.38;20.08;;;0.30;99.90;;;;;;5119828;27;20070;-90
2021/12/27 05:29:31;;;;;;;36.55;18.65;;;0.30;99.90;;;;;;5134932;27;20045;-85
2021/12/27 05:32:01;;;;;;;34.28;19.58;;;0.30;99.90;;;;;;5114484;27;20087;-84
2021/12/27 05:34:28;;;;;;;39.40;21.15;;;0.20;99.90;;;;;;5133389;27;20053;-82
2021/12/27 05:36:54;;;;;;;33.13;18.65;;;0.20;99.90;;;;;;5120683;27;20098;-84
2021/12/27 05:39:21;;;;;;;35.35;18.25;;;0.20;99.90;;;;;;5117798;27;20424;-83
2021/12/27 05:41:48;;;;;;;36.35;19.52;;;0.10;99.90;;;;;;5137771;27;20043;-82
2021/12/27 05:44:15;;;;;;;39.00;21.23;;;0.20;99.90;;;;;;5136972;27;20035;-83
2021/12/27 05:46:41;;;;;;;36.80;19.52;;;0.20;99.90;;;;;;5137655;27;20465;-82
2021/12/27 05:49:06;;;;;;;40.10;20.50;;;0.20;99.90;;;;;;5116467;27;20051;-87
2021/12/27 05:51:32;;;;;;;34.00;19.75;;;0.20;99.90;;;;;;5118383;27;20041;-82
2021/12/27 05:53:58;;;;;;;39.33;20.67;;;0.20;99.90;;;;;;5137275;27;20538;-82
2021/12/27 05:56:24;;;;;;;32.85;18.67;;;0.20;99.90;;;;;;5116615;27;20040;-81
2021/12/27 05:58:50;;;;;;;37.80;19.08;;;0.20;99.90;;;;;;5095087;27;20046;-81
2021/12/27 06:01:15;;;;;;;35.45;19.73;;;0.20;99.90;;;;;;5133132;27;20043;-83
2021/12/27 06:03:41;;;;;;;38.65;20.80;;;0.20;99.90;;;;;;5114498;27;20039;-82
2021/12/27 06:06:07;;;;;;;36.55;21.00;;;0.20;99.90;;;;;;5108041;27;20050;-82
2021/12/27 06:08:34;;;;;;;37.58;20.52;;;0.20;99.90;;;;;;5138251;27;20045;-81
2021/12/27 06:10:59;;;;;;;39.40;20.70;;;0.20;99.90;;;;;;5121392;27;20047;-82
2021/12/27 06:13:25;;;;;;;49.35;23.50;;;0.20;99.90;;;;;;5104940;27;20035;-81
2021/12/27 06:15:51;;;;;;;42.45;21.98;;;0.20;99.90;;;;;;5087966;27;20050;-81
2021/12/27 06:18:16;;;;;;;42.08;21.38;;;0.20;99.90;;;;;;5103650;27;20141;-82
2021/12/27 06:20:42;;;;;;;45.20;21.90;;;0.10;99.90;;;;;;5101982;27;20047;-83
2021/12/27 06:23:08;;;;;;;41.50;20.92;;;0.10;99.90;;;;;;5085537;27;20047;-82
2021/12/27 06:25:34;;;;;;;43.28;21.27;;;0.20;99.90;;;;;;5120559;27;20095;-82
2021/12/27 06:27:59;;;;;;;43.00;21.15;;;0.10;99.90;;;;;;5101161;27;20055;-82
2021/12/27 06:30:26;;;;;;;46.20;21.67;;;0.10;99.90;;;;;;5120472;27;20133;-83
2021/12/27 06:32:52;;;;;;;39.33;20.52;;;0.20;99.90;;;;;;5108538;27;20039;-82
2021/12/27 06:35:18;;;;;;;43.58;22.17;;;0.20;99.90;;;;;;5128636;27;20530;-82
2021/12/27 06:37:46;;;;;;;46.05;22.13;;;0.20;99.90;;;;;;5120258;27;20437;-81
2021/12/27 06:40:14;;;;;;;42.38;21.90;;;0.20;99.90;;;;;;5120509;27;20407;-83
2021/12/27 06:42:40;;;;;;;41.25;21.65;;;0.20;99.90;;;;;;5135354;27;20046;-82
2021/12/27 06:45:07;;;;;;;50.00;22.55;;;0.20;99.90;;;;;;5116487;27;20043;-83
2021/12/27 06:47:32;;;;;;;44.35;21.95;;;0.20;99.90;;;;;;5117025;27;20103;-82
2021/12/27 06:49:58;;;;;;;39.90;21.58;;;0.30;99.90;;;;;;5114172;27;20117;-82
2021/12/27 06:52:24;;;;;;;39.65;21.33;;;0.20;99.90;;;;;;5116009;27;20051;-81
2021/12/27 06:54:51;;;;;;;40.13;21.52;;;0.20;99.90;;;;;;5110019;27;20492;-84
2021/12/27 06:57:18;;;;;;;41.47;21.20;;;0.20;99.90;;;;;;5097917;27;20050;-90
2021/12/27 06:59:45;;;;;;;42.70;21.80;;;0.20;99.90;;;;;;5105311;27;20047;-82
2021/12/27 07:02:11;;;;;;;41.10;21.80;;;0.20;99.90;;;;;;5119232;27;20108;-81
2021/12/27 07:04:37;;;;;;;42.45;22.80;;;0.40;99.90;;;;;;5136469;27;20130;-82
2021/12/27 07:07:03;;;;;;;47.90;22.77;;;0.30;99.90;;;;;;5120486;27;20074;-81
2021/12/27 07:09:29;;;;;;;41.55;22.33;;;0.30;99.90;;;;;;5092457;27;20093;-81
2021/12/27 07:11:54;;;;;;;42.85;22.15;;;0.30;99.90;;;;;;5097848;27;20499;-81
2021/12/27 07:14:20;;;;;;;44.85;22.67;;;0.20;99.90;;;;;;5137488;27;20038;-81
2021/12/27 07:16:46;;;;;;;48.42;23.42;;;0.30;99.90;;;;;;5103051;27;20100;-80
2021/12/27 07:19:12;;;;;;;48.92;23.95;;;0.20;99.90;;;;;;5103367;27;20057;-82
2021/12/27 07:21:38;;;;;;;43.95;22.58;;;0.30;99.90;;;;;;5084975;27;20511;-82
2021/12/27 07:24:04;;;;;;;48.90;23.27;;;0.30;99.90;;;;;;5135764;27;20050;-82
2021/12/27 07:26:30;;;;;;;46.92;23.17;;;0.30;99.90;;;;;;5100379;27;20107;-81
2021/12/27 07:28:56;;;;;;;43.50;22.33;;;0.30;99.90;;;;;;5135169;27;20054;-83
2021/12/27 07:31:22;;;;;;;44.53;23.63;;;0.40;99.90;;;;;;5102463;27;20081;-85
2021/12/27 07:33:47;;;;;;;51.63;23.98;;;0.40;99.90;;;;;;5136679;27;20111;-80
2021/12/27 07:36:13;;;;;;;43.92;22.33;;;0.40;99.90;;;;;;5136817;27;20039;-81
2021/12/27 07:38:42;;;;;;;47.40;24.15;;;0.30;99.90;;;;;;5136924;27;20050;-80
2021/12/27 07:41:10;;;;;;;47.20;23.02;;;0.40;99.90;;;;;;5137093;27;20388;-81
2021/12/27 07:43:36;;;;;;;46.03;22.77;;;0.40;99.90;;;;;;5115514;27;20050;-82
2021/12/27 07:46:02;;;;;;;52.30;24.35;;;0.40;99.90;;;;;;5102771;27;20536;-81
2021/12/27 07:48:28;;;;;;;49.83;23.20;;;0.30;99.90;;;;;;5136047;27;20051;-81
2021/12/27 07:50:54;;;;;;;49.33;25.40;;;0.40;99.90;;;;;;5133245;27;20480;-82
2021/12/27 07:53:20;;;;;;;46.42;23.95;;;0.40;99.90;;;;;;5134821;27;20053;-81
2021/12/27 07:55:46;;;;;;;47.28;23.42;;;0.30;99.90;;;;;;5080912;27;20046;-83
2021/12/27 07:58:12;;;;;;;46.78;24.25;;;0.40;99.90;;;;;;5114905;28;20101;-82
2021/12/27 08:00:38;;;;;;;51.55;23.80;;;0.40;99.90;;;;;;5114117;27;20465;-82
2021/12/27 08:03:05;;;;;;;47.03;23.73;;;0.40;99.90;;;;;;5132117;27;20395;-82
2021/12/27 08:05:31;;;;;;;49.65;22.60;;;0.40;99.90;;;;;;5114326;27;20055;-83
2021/12/27 08:07:56;;;;;;;46.80;23.25;;;0.40;99.90;;;;;;5119107;27;20047;-81
2021/12/27 08:10:22;;;;;;;48.05;24.23;;;0.40;99.90;;;;;;5119721;27;20047;-81
2021/12/27 08:12:48;;;;;;;49.35;24.48;;;0.40;99.90;;;;;;5115124;27;20538;-81
2021/12/27 08:15:14;;;;;;;50.25;23.95;;;0.40;99.90;;;;;;5128800;27;20064;-82
2021/12/27 08:17:40;;;;;;;57.38;25.85;;;0.50;99.90;;;;;;5116969;27;20133;-81
2021/12/27 08:20:07;;;;;;;74.25;31.70;;;0.40;99.90;;;;;;5117507;27;20046;-82
2021/12/27 08:22:33;;;;;;;83.60;39.55;;;0.40;99.90;;;;;;5084139;27;20039;-79
2021/12/27 08:24:59;;;;;;;80.57;39.42;;;0.40;99.90;;;;;;5152553;27;20042;-79
2021/12/27 08:27:28;;;;;;;89.07;42.92;;;0.40;99.90;;;;;;5134117;27;20122;-80
2021/12/27 08:29:54;;;;;;;80.32;41.75;;;0.40;99.90;;;;;;5131149;27;20134;-80
2021/12/27 08:32:20;;;;;;;71.72;36.50;;;0.50;99.90;;;;;;5130793;27;20069;-82
2021/12/27 08:34:46;;;;;;;58.92;29.13;;;0.50;99.90;;;;;;5119545;27;20039;-80
2021/12/27 08:37:12;;;;;;;60.00;27.15;;;0.50;99.90;;;;;;5086128;27;20078;-82
2021/12/27 08:39:38;;;;;;;55.22;28.02;;;0.50;99.90;;;;;;5122723;27;20322;-80
2021/12/27 08:42:08;;;;;;;56.25;26.70;;;0.50;99.90;;;;;;5157645;27;20517;-80
2021/12/27 08:44:35;;;;;;;68.40;30.15;;;0.50;99.90;;;;;;5122015;27;20053;-81
2021/12/27 08:47:01;;;;;;;66.72;28.90;;;0.50;99.90;;;;;;5121026;27;20137;-80
2021/12/27 08:49:26;;;;;;;64.03;27.88;;;0.50;99.90;;;;;;5096588;27;20167;-81
2021/12/27 08:51:52;;;;;;;61.53;25.50;;;0.50;99.90;;;;;;5121529;27;20941;-77
2021/12/27 08:54:18;;;;;;;65.38;25.45;;;0.50;99.90;;;;;;5120687;27;20057;-79
2021/12/27 08:56:44;;;;;;;62.00;25.17;;;0.50;99.90;;;;;;5120750;27;20111;-80
2021/12/27 08:59:10;;;;;;;59.17;25.83;;;0.60;99.90;;;;;;5140056;27;20082;-80
2021/12/27 09:01:35;;;;;;;65.38;25.55;;;0.50;99.90;;;;;;5138558;27;20049;-79
2021/12/27 09:04:01;;;;;;;65.35;25.10;;;0.60;99.90;;;;;;5137005;27;20042;-83
2021/12/27 09:06:27;;;;;;;73.90;27.65;;;0.60;99.90;;;;;;5125713;27;20085;-79
2021/12/27 09:08:53;;;;;;;66.20;25.60;;;0.60;99.90;;;;;;5154873;27;20123;-77
2021/12/27 09:11:19;;;;;;;73.40;26.88;;;0.60;99.90;;;;;;5119135;27;20039;-78
2021/12/27 09:13:44;;;;;;;72.22;26.70;;;0.60;99.90;;;;;;5103885;27;20588;-78
2021/12/27 09:16:13;;;;;;;69.70;26.75;;;0.60;99.90;;;;;;5136383;27;20049;-80
2021/12/27 09:18:38;;;;;;;77.80;31.48;;;0.60;99.90;;;;;;5126152;27;20065;-78
2021/12/27 09:21:05;;;;;;;82.28;29.38;;;0.60;99.90;;;;;;5156362;27;20395;-83
2021/12/27 09:23:31;;;;;;;76.70;29.13;;;0.60;99.90;;;;;;5134950;27;20563;-78
2021/12/27 09:25:56;;;;;;;84.63;32.88;;;0.60;99.90;;;;;;5133283;27;20047;-78
2021/12/27 09:28:22;;;;;;;76.57;27.33;;;0.70;99.90;;;;;;5135670;27;20043;-79
2021/12/27 09:30:48;;;;;;;71.75;27.45;;;0.70;99.90;;;;;;5139537;27;20050;-78
2021/12/27 09:33:14;;;;;;;76.85;28.08;;;0.70;99.90;;;;;;5138254;27;20437;-78
2021/12/27 09:35:40;;;;;;;80.95;28.30;;;0.70;99.90;;;;;;5156712;27;20471;-79
2021/12/27 09:38:25;;;;;;;86.53;29.73;;;0.80;99.90;;;;;;5135330;27;20043;-77
2021/12/27 09:40:51;;;;;;;80.18;29.55;;;0.80;99.90;;;;;;5138436;27;20051;-79
2021/12/27 09:43:17;;;;;;;80.20;29.88;;;0.80;99.90;;;;;;5157841;27;20038;-79
2021/12/27 09:45:43;;;;;;;86.95;29.67;;;0.80;99.90;;;;;;5138791;27;20510;-79
2021/12/27 09:48:22;;;;;;;83.40;28.42;;;0.90;99.90;;;;;;5139630;27;20148;-78
2021/12/27 09:54:29;;;;;;;84.38;26.65;;;1.00;99.90;;;;;;5156395;27;20083;-81
2021/12/27 09:56:56;;;;;;;81.18;27.10;;;1.00;99.90;;;;;;5102577;27;20471;-82
2021/12/27 09:59:24;;;;;;;88.45;29.33;;;1.00;99.90;;;;;;5114745;27;20478;-80
2021/12/27 10:01:52;;;;;;;88.90;30.13;;;1.00;99.90;;;;;;5123976;27;20035;-78
2021/12/27 10:04:18;;;;;;;96.47;29.10;;;1.00;99.90;;;;;;5139059;27;20115;-78
2021/12/27 10:06:44;;;;;;;93.20;28.40;;;1.10;99.90;;;;;;5122270;27;20065;-78
2021/12/27 10:09:10;;;;;;;100.75;30.38;;;1.10;99.90;;;;;;5125505;27;20807;-80
2021/12/27 10:11:38;;;;;;;99.90;29.92;;;1.10;99.90;;;;;;5116452;27;20051;-79
2021/12/27 10:14:06;;;;;;;96.40;29.15;;;1.10;99.90;;;;;;5116381;27;20039;-79
2021/12/27 10:16:35;;;;;;;84.38;28.60;;;1.20;99.90;;;;;;5099596;27;20434;-81
2021/12/27 10:19:04;;;;;;;85.85;27.83;;;1.20;99.90;;;;;;5115670;27;20384;-82
2021/12/27 10:21:30;;;;;;;101.18;29.80;;;1.20;99.90;;;;;;5116219;27;20047;-79
2021/12/27 10:24:27;;;;;;;94.97;29.35;;;1.20;99.90;;;;;;5082265;27;20088;-80
2021/12/27 10:26:54;;;;;;;90.57;29.60;;;1.30;99.90;;;;;;5099064;27;20055;-79
2021/12/27 10:29:27;;;;;;;98.25;28.88;;;1.30;99.90;;;;;;5099457;27;20050;-81
2021/12/27 10:32:05;;;;;;;94.10;29.73;;;1.30;99.90;;;;;;5115821;27;20391;-78
2021/12/27 10:34:35;;;;;;;96.30;28.02;;;1.30;99.90;;;;;;5098837;27;20725;-78
2021/12/27 10:37:12;;;;;;;100.18;29.98;;;1.40;99.90;;;;;;5116117;27;20122;-81
2021/12/27 10:39:49;;;;;;;89.85;28.40;;;1.40;99.90;;;;;;5099037;27;20046;-79
2021/12/27 10:42:50;;;;;;;87.13;26.88;;;1.40;99.90;;;;;;5099377;27;20125;-79
2021/12/27 10:45:19;;;;;;;104.53;31.48;;;1.50;99.90;;;;;;5098820;27;20436;-80
2021/12/27 10:47:47;;;;;;;111.47;36.28;;;1.40;99.90;;;;;;5115483;27;20051;-79
2021/12/27 10:50:28;;;;;;;92.00;28.75;;;1.50;99.90;;;;;;5115905;27;20039;-79
2021/12/27 10:53:08;;;;;;;92.03;27.98;;;1.60;99.90;;;;;;5114959;27;20075;-80
2021/12/27 10:55:43;;;;;;;96.70;29.08;;;1.60;99.90;;;;;;5115398;27;20671;-79
2021/12/27 10:58:29;;;;;;;103.25;29.80;;;1.70;99.90;;;;;;5097178;27;20146;-79
2021/12/27 11:00:56;;;;;;;112.20;31.70;;;1.70;99.90;;;;;;5115222;27;20395;-79
2021/12/27 11:03:43;;;;;;;102.80;29.48;;;1.70;99.90;;;;;;5098432;27;20126;-80
2021/12/27 11:06:11;;;;;;;104.65;31.13;;;1.80;99.90;;;;;;5115430;27;20110;-79
2021/12/27 11:08:45;;;;;;;99.85;28.75;;;1.80;99.90;;;;;;5115506;27;20141;-80
2021/12/27 11:11:12;;;;;;;118.13;30.52;;;1.90;99.90;;;;;;5098058;27;20076;-82
2021/12/27 11:13:38;;;;;;;127.53;30.35;;;2.00;99.90;;;;;;5115417;27;20047;-79
2021/12/27 11:16:04;;;;;;;103.07;29.00;;;2.00;99.90;;;;;;5115382;27;20039;-79
2021/12/27 11:18:30;;;;;;;105.28;31.55;;;2.10;99.90;;;;;;5115189;27;20809;-78
2021/12/27 11:21:00;;;;;;;109.55;30.15;;;2.10;99.90;;;;;;5098256;27;20066;-79
2021/12/27 11:23:28;;;;;;;108.03;30.80;;;2.10;99.90;;;;;;5115405;27;20476;-79
2021/12/27 11:26:06;;;;;;;120.18;31.42;;;2.10;99.90;;;;;;5114843;27;20088;-82
2021/12/27 11:28:40;;;;;;;118.80;31.65;;;2.10;99.90;;;;;;5098717;27;20135;-79
2021/12/27 11:31:23;;;;;;;109.85;31.10;;;2.20;99.90;;;;;;5097730;27;20100;-80
2021/12/27 11:34:02;;;;;;;109.43;33.97;;;2.20;99.90;;;;;;5098195;27;20047;-80
2021/12/27 11:36:36;;;;;;;103.93;30.13;;;2.20;99.90;;;;;;5098325;27;20051;-79
2021/12/27 11:39:25;;;;;;;110.30;32.05;;;2.20;99.90;;;;;;5097861;27;20047;-80
2021/12/27 11:42:09;;;;;;;111.32;34.00;;;2.20;99.90;;;;;;5098053;27;20054;-80
2021/12/27 11:44:51;;;;;;;170.05;47.13;;;2.10;99.90;;;;;;5115015;27;20172;-83
2021/12/27 11:47:29;;;;;;;147.18;40.38;;;2.10;99.90;;;;;;5097781;27;20051;-80
2021/12/27 11:50:06;;;;;;;132.57;36.10;;;2.20;99.90;;;;;;5097800;27;20046;-88
2021/12/27 11:52:47;;;;;;;146.57;41.75;;;2.20;99.90;;;;;;5113432;28;20089;-80
2021/12/27 11:55:15;;;;;;;144.20;44.08;;;2.20;99.90;;;;;;5096509;27;20058;-80
2021/12/27 11:57:49;;;;;;;148.43;40.42;;;2.20;99.90;;;;;;5097794;27;20054;-82
2021/12/27 12:00:18;;;;;;;144.23;48.22;;;2.20;99.90;;;;;;5097578;27;20058;-80
2021/12/27 12:02:46;;;;;;;151.93;42.10;;;2.20;99.90;;;;;;5114742;27;20047;-80
2021/12/27 12:05:45;;;;;;;151.00;47.53;;;2.20;99.90;;;;;;5114443;27;20522;-79
2021/12/27 12:08:15;;;;;;;126.80;37.47;;;2.20;99.90;;;;;;5114243;28;20051;-80
2021/12/27 12:11:00;;;;;;;136.95;43.58;;;2.20;99.90;;;;;;5097461;27;20047;-81
2021/12/27 12:13:47;;;;;;;152.52;53.05;;;2.30;99.90;;;;;;5114806;28;20043;-80
2021/12/27 12:16:20;;;;;;;;;;;2.40;99.90;;;;;;5114694;28;20373;-80
2021/12/27 12:18:51;;;;;;;126.43;39.70;;;2.40;99.90;;;;;;5114334;28;19920;-83
2021/12/27 12:21:37;;;;;;;147.50;41.60;;;2.40;99.90;;;;;;5097694;28;20123;-80
2021/12/27 12:24:12;;;;;;;125.15;37.75;;;2.40;99.90;;;;;;5113946;28;20043;-80
2021/12/27 12:26:55;;;;;;;131.02;38.75;;;2.40;99.90;;;;;;5114524;28;20055;-80
2021/12/27 12:29:22;;;;;;;130.98;41.25;;;2.50;99.90;;;;;;5114160;28;20108;-80
2021/12/27 12:31:53;;;;;;;116.00;33.92;;;2.60;99.90;;;;;;5118733;27;20031;-79
2021/12/27 12:34:19;;;;;;;113.15;36.47;;;2.60;99.90;;;;;;5134543;27;20099;-79
2021/12/27 12:36:48;;;;;;;111.60;35.53;;;2.70;99.90;;;;;;5118043;27;20043;-79
2021/12/27 12:39:15;;;;;;;129.63;35.92;;;2.70;99.90;;;;;;5134505;27;20042;-79
2021/12/27 12:41:41;;;;;;;117.35;33.78;;;2.70;99.90;;;;;;5117858;27;20047;-79